sensor_id;sensor_type;location;lat;lon;timestamp;temperature;humidity
16479;DHT22;8350;52.316;10.530;2023-04-24T00:01:27;13.70;1.00
16479;DHT22;8350;52.316;10.530;2023-04-24T00:03:57;13.80;1.00
16479;DHT22;8350;52.316;10.530;2023-04-24T00:06:25;13.80;1.00
16479;DHT22;8350;52.316;10.530;2023-04-24T00:08:58;13.70;1.00
16479;DHT22;8350;52.316;10.530;2023-04-24T00:11:26;13.60;1.00
16479;DHT22;8350;52.316;10.530;2023-04-24T00:13:57;13.50;1.00
16479;DHT22;8350;52.316;10.530;2023-04-24T00:16:24;13.50;1.00
16479;DHT22;8350;52.316;10.530;2023-04-24T00:18:53;13.50;1.00
16479;DHT22;8350;52.316;10.530;2023-04-24T00:21:21;13.40;1.00
16479;DHT22;8350;52.316;10.530;2023-04-24T00:23:54;13.30;1.00
16479;DHT22;8350;52.316;10.530;2023-04-24T00:26:21;13.30;1.00
16479;DHT22;8350;52.316;10.530;2023-04-24T00:28:48;13.30;1.00
16479;DHT22;8350;52.316;10.530;2023-04-24T00:31:16;13.20;1.00
16479;DHT22;8350;52.316;10.530;2023-04-24T00:33:43;13.10;1.00
16479;DHT22;8350;52.316;10.530;2023-04-24T00:36:10;13.10;1.00
16479;DHT22;8350;52.316;10.530;2023-04-24T00:38:37;13.10;1.00
16479;DHT22;8350;52.316;10.530;2023-04-24T00:41:04;13.10;1.00
16479;DHT22;8350;52.316;10.530;2023-04-24T00:43:31;13.10;1.00
16479;DHT22;8350;52.316;10.530;2023-04-24T00:45:57;13.00;1.00
16479;DHT22;8350;52.316;10.530;2023-04-24T00:48:26;13.00;1.00
16479;DHT22;8350;52.316;10.530;2023-04-24T00:50:54;13.00;1.00
16479;DHT22;8350;52.316;10.530;2023-04-24T00:53:21;12.90;1.00
16479;DHT22;8350;52.316;10.530;2023-04-24T00:55:48;12.90;1.00
16479;DHT22;8350;52.316;10.530;2023-04-24T00:58:14;12.80;1.00
16479;DHT22;8350;52.316;10.530;2023-04-24T01:00:41;12.80;1.00
16479;DHT22;8350;52.316;10.530;2023-04-24T01:03:08;12.80;1.00
16479;DHT22;8350;52.316;10.530;2023-04-24T01:05:37;12.80;1.00
16479;DHT22;8350;52.316;10.530;2023-04-24T01:08:07;12.70;1.00
16479;DHT22;8350;52.316;10.530;2023-04-24T01:10:38;12.70;1.00
16479;DHT22;8350;52.316;10.530;2023-04-24T01:13:07;12.60;1.00
16479;DHT22;8350;52.316;10.530;2023-04-24T01:15:35;12.60;1.00
16479;DHT22;8350;52.316;10.530;2023-04-24T01:18:02;12.50;1.00
16479;DHT22;8350;52.316;10.530;2023-04-24T01:20:29;12.50;1.00
16479;DHT22;8350;52.316;10.530;2023-04-24T01:22:58;12.50;1.00
16479;DHT22;8350;52.316;10.530;2023-04-24T01:25:26;12.40;1.00
16479;DHT22;8350;52.316;10.530;2023-04-24T01:27:54;12.40;1.00
16479;DHT22;8350;52.316;10.530;2023-04-24T01:30:21;12.40;1.00
16479;DHT22;8350;52.316;10.530;2023-04-24T01:32:48;12.50;1.00
16479;DHT22;8350;52.316;10.530;2023-04-24T01:35:15;12.40;1.00
16479;DHT22;8350;52.316;10.530;2023-04-24T01:37:42;12.40;1.00
16479;DHT22;8350;52.316;10.530;2023-04-24T01:40:10;12.40;1.00
16479;DHT22;8350;52.316;10.530;2023-04-24T01:42:37;12.30;1.00
16479;DHT22;8350;52.316;10.530;2023-04-24T01:45:10;12.30;1.00
16479;DHT22;8350;52.316;10.530;2023-04-24T01:47:37;12.30;1.00
16479;DHT22;8350;52.316;10.530;2023-04-24T01:50:05;12.30;1.00
16479;DHT22;8350;52.316;10.530;2023-04-24T01:52:32;12.30;1.00
16479;DHT22;8350;52.316;10.530;2023-04-24T01:55:01;12.20;1.00
16479;DHT22;8350;52.316;10.530;2023-04-24T01:57:31;12.20;1.00
16479;DHT22;8350;52.316;10.530;2023-04-24T01:59:58;12.10;1.00
16479;DHT22;8350;52.316;10.530;2023-04-24T02:02:25;12.10;1.00
16479;DHT22;8350;52.316;10.530;2023-04-24T02:04:52;12.10;1.00
16479;DHT22;8350;52.316;10.530;2023-04-24T02:07:19;12.10;1.00
16479;DHT22;8350;52.316;10.530;2023-04-24T02:09:46;12.00;1.00
16479;DHT22;8350;52.316;10.530;2023-04-24T02:12:13;12.00;1.00
16479;DHT22;8350;52.316;10.530;2023-04-24T02:14:41;12.00;1.00
16479;DHT22;8350;52.316;10.530;2023-04-24T02:17:09;11.90;1.40
16479;DHT22;8350;52.316;10.530;2023-04-24T02:19:38;11.90;2.80
16479;DHT22;8350;52.316;10.530;2023-04-24T02:22:08;11.90;5.30
16479;DHT22;8350;52.316;10.530;2023-04-24T02:24:36;11.80;20.60
16479;DHT22;8350;52.316;10.530;2023-04-24T02:27:02;11.80;21.10
16479;DHT22;8350;52.316;10.530;2023-04-24T02:29:29;11.80;28.40
16479;DHT22;8350;52.316;10.530;2023-04-24T02:31:58;11.80;22.40
16479;DHT22;8350;52.316;10.530;2023-04-24T02:34:25;11.80;21.40
16479;DHT22;8350;52.316;10.530;2023-04-24T02:36:52;11.70;26.70
16479;DHT22;8350;52.316;10.530;2023-04-24T02:39:20;11.70;27.40
16479;DHT22;8350;52.316;10.530;2023-04-24T02:41:47;11.70;32.80
16479;DHT22;8350;52.316;10.530;2023-04-24T02:44:14;11.70;29.80
16479;DHT22;8350;52.316;10.530;2023-04-24T02:46:41;11.60;26.20
16479;DHT22;8350;52.316;10.530;2023-04-24T02:49:09;11.60;26.00
16479;DHT22;8350;52.316;10.530;2023-04-24T02:51:37;11.60;22.10
16479;DHT22;8350;52.316;10.530;2023-04-24T02:54:06;11.70;20.60
16479;DHT22;8350;52.316;10.530;2023-04-24T02:56:33;11.70;13.60
16479;DHT22;8350;52.316;10.530;2023-04-24T02:59:00;11.60;13.30
16479;DHT22;8350;52.316;10.530;2023-04-24T03:01:27;11.50;18.30
16479;DHT22;8350;52.316;10.530;2023-04-24T03:03:53;11.50;29.30
16479;DHT22;8350;52.316;10.530;2023-04-24T03:06:22;11.50;25.80
16479;DHT22;8350;52.316;10.530;2023-04-24T03:08:48;11.50;25.10
16479;DHT22;8350;52.316;10.530;2023-04-24T03:11:16;11.40;43.30
16479;DHT22;8350;52.316;10.530;2023-04-24T03:13:43;11.30;46.50
16479;DHT22;8350;52.316;10.530;2023-04-24T03:16:10;11.20;54.50
16479;DHT22;8350;52.316;10.530;2023-04-24T03:18:36;11.20;61.40
16479;DHT22;8350;52.316;10.530;2023-04-24T03:21:06;11.10;72.00
16479;DHT22;8350;52.316;10.530;2023-04-24T03:23:34;11.10;64.90
16479;DHT22;8350;52.316;10.530;2023-04-24T03:26:01;11.00;76.00
16479;DHT22;8350;52.316;10.530;2023-04-24T03:28:28;11.00;75.30
16479;DHT22;8350;52.316;10.530;2023-04-24T03:30:55;11.00;63.00
16479;DHT22;8350;52.316;10.530;2023-04-24T03:33:21;11.00;56.50
16479;DHT22;8350;52.316;10.530;2023-04-24T03:35:48;11.00;48.90
16479;DHT22;8350;52.316;10.530;2023-04-24T03:38:15;11.00;48.70
16479;DHT22;8350;52.316;10.530;2023-04-24T03:40:43;11.00;52.30
16479;DHT22;8350;52.316;10.530;2023-04-24T03:43:10;10.90;54.40
16479;DHT22;8350;52.316;10.530;2023-04-24T03:45:37;10.90;49.50
16479;DHT22;8350;52.316;10.530;2023-04-24T03:48:04;10.80;33.20
16479;DHT22;8350;52.316;10.530;2023-04-24T03:50:30;10.90;21.10
16479;DHT22;8350;52.316;10.530;2023-04-24T03:52:57;10.80;13.70
16479;DHT22;8350;52.316;10.530;2023-04-24T03:55:26;10.90;10.10
16479;DHT22;8350;52.316;10.530;2023-04-24T03:57:55;10.90;5.40
16479;DHT22;8350;52.316;10.530;2023-04-24T04:00:21;10.80;5.40
16479;DHT22;8350;52.316;10.530;2023-04-24T04:02:48;10.70;15.30
16479;DHT22;8350;52.316;10.530;2023-04-24T04:05:15;10.70;20.00
16479;DHT22;8350;52.316;10.530;2023-04-24T04:07:42;10.70;15.50
16479;DHT22;8350;52.316;10.530;2023-04-24T04:10:09;10.60;20.40
16479;DHT22;8350;52.316;10.530;2023-04-24T04:12:36;10.60;16.50
16479;DHT22;8350;52.316;10.530;2023-04-24T04:15:05;10.50;26.80
16479;DHT22;8350;52.316;10.530;2023-04-24T04:17:32;10.50;36.40
16479;DHT22;8350;52.316;10.530;2023-04-24T04:19:59;10.40;34.60
16479;DHT22;8350;52.316;10.530;2023-04-24T04:22:26;10.40;44.50
16479;DHT22;8350;52.316;10.530;2023-04-24T04:24:53;10.50;41.10
16479;DHT22;8350;52.316;10.530;2023-04-24T04:27:23;10.40;36.60
16479;DHT22;8350;52.316;10.530;2023-04-24T04:29:50;10.50;33.90
16479;DHT22;8350;52.316;10.530;2023-04-24T04:32:18;10.50;29.30
16479;DHT22;8350;52.316;10.530;2023-04-24T04:34:45;10.60;31.70
16479;DHT22;8350;52.316;10.530;2023-04-24T04:37:11;10.60;33.20
16479;DHT22;8350;52.316;10.530;2023-04-24T04:39:39;10.60;28.50
16479;DHT22;8350;52.316;10.530;2023-04-24T04:42:06;10.70;27.50
16479;DHT22;8350;52.316;10.530;2023-04-24T04:44:33;10.70;14.00
16479;DHT22;8350;52.316;10.530;2023-04-24T04:47:04;10.80;12.90
16479;DHT22;8350;52.316;10.530;2023-04-24T04:49:33;10.80;7.70
16479;DHT22;8350;52.316;10.530;2023-04-24T04:52:03;10.80;14.00
16479;DHT22;8350;52.316;10.530;2023-04-24T04:54:30;10.80;19.80
16479;DHT22;8350;52.316;10.530;2023-04-24T04:56:58;10.80;22.10
16479;DHT22;8350;52.316;10.530;2023-04-24T04:59:26;10.90;22.00
16479;DHT22;8350;52.316;10.530;2023-04-24T05:01:52;10.90;28.00
16479;DHT22;8350;52.316;10.530;2023-04-24T05:04:23;10.90;39.70
16479;DHT22;8350;52.316;10.530;2023-04-24T05:06:51;11.00;42.50
16479;DHT22;8350;52.316;10.530;2023-04-24T05:09:21;11.00;45.40
16479;DHT22;8350;52.316;10.530;2023-04-24T05:11:48;11.10;39.60
16479;DHT22;8350;52.316;10.530;2023-04-24T05:14:15;11.20;32.30
16479;DHT22;8350;52.316;10.530;2023-04-24T05:16:43;11.20;21.10
16479;DHT22;8350;52.316;10.530;2023-04-24T05:19:10;11.30;22.60
16479;DHT22;8350;52.316;10.530;2023-04-24T05:21:37;11.30;14.90
16479;DHT22;8350;52.316;10.530;2023-04-24T05:24:06;11.40;15.60
16479;DHT22;8350;52.316;10.530;2023-04-24T05:26:33;11.40;13.70
16479;DHT22;8350;52.316;10.530;2023-04-24T05:29:01;11.50;6.80
16479;DHT22;8350;52.316;10.530;2023-04-24T05:31:27;11.50;5.60
16479;DHT22;8350;52.316;10.530;2023-04-24T05:33:54;11.60;9.60
16479;DHT22;8350;52.316;10.530;2023-04-24T05:36:21;11.60;1.00
16479;DHT22;8350;52.316;10.530;2023-04-24T05:38:48;11.60;1.00
16479;DHT22;8350;52.316;10.530;2023-04-24T05:41:16;11.70;1.00
16479;DHT22;8350;52.316;10.530;2023-04-24T05:43:49;11.80;1.00
16479;DHT22;8350;52.316;10.530;2023-04-24T05:46:16;11.70;4.70
16479;DHT22;8350;52.316;10.530;2023-04-24T05:48:43;11.70;4.90
16479;DHT22;8350;52.316;10.530;2023-04-24T05:51:10;11.80;1.00
16479;DHT22;8350;52.316;10.530;2023-04-24T05:53:37;11.80;1.00
16479;DHT22;8350;52.316;10.530;2023-04-24T05:56:04;11.80;1.00
16479;DHT22;8350;52.316;10.530;2023-04-24T05:58:32;11.90;1.00
16479;DHT22;8350;52.316;10.530;2023-04-24T06:00:59;11.90;1.00
16479;DHT22;8350;52.316;10.530;2023-04-24T06:03:27;12.00;1.00
16479;DHT22;8350;52.316;10.530;2023-04-24T06:05:54;12.00;1.00
16479;DHT22;8350;52.316;10.530;2023-04-24T06:08:21;12.10;1.00
16479;DHT22;8350;52.316;10.530;2023-04-24T06:10:48;12.20;1.00
16479;DHT22;8350;52.316;10.530;2023-04-24T06:13:15;12.30;1.00
16479;DHT22;8350;52.316;10.530;2023-04-24T06:15:43;12.30;1.00
16479;DHT22;8350;52.316;10.530;2023-04-24T06:18:10;12.30;1.00
16479;DHT22;8350;52.316;10.530;2023-04-24T06:20:38;12.30;1.00
16479;DHT22;8350;52.316;10.530;2023-04-24T06:23:05;12.30;1.00
16479;DHT22;8350;52.316;10.530;2023-04-24T06:25:32;12.30;3.30
16479;DHT22;8350;52.316;10.530;2023-04-24T06:27:59;12.20;6.90
16479;DHT22;8350;52.316;10.530;2023-04-24T06:30:27;12.20;1.00
16479;DHT22;8350;52.316;10.530;2023-04-24T06:32:55;12.20;1.00
16479;DHT22;8350;52.316;10.530;2023-04-24T06:35:21;12.30;9.00
16479;DHT22;8350;52.316;10.530;2023-04-24T06:37:48;12.30;1.00
16479;DHT22;8350;52.316;10.530;2023-04-24T06:40:15;12.40;1.00
16479;DHT22;8350;52.316;10.530;2023-04-24T06:42:44;12.40;1.00
16479;DHT22;8350;52.316;10.530;2023-04-24T06:45:11;12.30;1.00
16479;DHT22;8350;52.316;10.530;2023-04-24T06:47:37;12.40;1.00
16479;DHT22;8350;52.316;10.530;2023-04-24T06:50:07;12.40;1.00
16479;DHT22;8350;52.316;10.530;2023-04-24T06:52:33;12.40;1.00
16479;DHT22;8350;52.316;10.530;2023-04-24T06:55:01;12.50;1.00
16479;DHT22;8350;52.316;10.530;2023-04-24T06:57:28;12.50;1.00
16479;DHT22;8350;52.316;10.530;2023-04-24T06:59:59;12.60;1.00
16479;DHT22;8350;52.316;10.530;2023-04-24T07:02:26;12.60;1.00
16479;DHT22;8350;52.316;10.530;2023-04-24T07:04:53;12.70;1.00
16479;DHT22;8350;52.316;10.530;2023-04-24T07:07:21;12.80;1.00
16479;DHT22;8350;52.316;10.530;2023-04-24T07:09:49;12.90;1.00
16479;DHT22;8350;52.316;10.530;2023-04-24T07:12:16;13.20;1.00
16479;DHT22;8350;52.316;10.530;2023-04-24T07:14:46;13.40;1.00
16479;DHT22;8350;52.316;10.530;2023-04-24T07:17:12;13.70;1.00
16479;DHT22;8350;52.316;10.530;2023-04-24T07:19:40;14.10;1.00
16479;DHT22;8350;52.316;10.530;2023-04-24T07:22:07;14.40;1.00
16479;DHT22;8350;52.316;10.530;2023-04-24T07:24:35;14.80;1.00
16479;DHT22;8350;52.316;10.530;2023-04-24T07:27:02;15.10;1.00
16479;DHT22;8350;52.316;10.530;2023-04-24T07:29:29;15.50;1.00
16479;DHT22;8350;52.316;10.530;2023-04-24T07:31:57;15.50;1.00
16479;DHT22;8350;52.316;10.530;2023-04-24T07:34:24;15.10;1.00
16479;DHT22;8350;52.316;10.530;2023-04-24T07:36:52;14.30;1.00
16479;DHT22;8350;52.316;10.530;2023-04-24T07:39:19;13.50;1.00
16479;DHT22;8350;52.316;10.530;2023-04-24T07:41:48;13.10;1.00
16479;DHT22;8350;52.316;10.530;2023-04-24T07:44:15;12.60;1.00
16479;DHT22;8350;52.316;10.530;2023-04-24T07:46:41;12.40;1.00
16479;DHT22;8350;52.316;10.530;2023-04-24T07:49:21;12.20;1.00
16479;DHT22;8350;52.316;10.530;2023-04-24T07:51:48;12.10;1.00
16479;DHT22;8350;52.316;10.530;2023-04-24T07:54:27;12.00;1.00
16479;DHT22;8350;52.316;10.530;2023-04-24T07:57:11;11.90;1.00
16479;DHT22;8350;52.316;10.530;2023-04-24T07:59:39;11.60;22.00
16479;DHT22;8350;52.316;10.530;2023-04-24T08:02:06;11.60;71.90
16479;DHT22;8350;52.316;10.530;2023-04-24T08:04:33;11.50;40.30
16479;DHT22;8350;52.316;10.530;2023-04-24T08:07:02;11.60;99.30
16479;DHT22;8350;52.316;10.530;2023-04-24T08:09:29;11.60;60.10
16479;DHT22;8350;52.316;10.530;2023-04-24T08:11:56;11.50;34.60
16479;DHT22;8350;52.316;10.530;2023-04-24T08:14:24;11.60;71.50
16479;DHT22;8350;52.316;10.530;2023-04-24T08:16:54;11.50;13.10
16479;DHT22;8350;52.316;10.530;2023-04-24T08:19:21;11.70;1.00
16479;DHT22;8350;52.316;10.530;2023-04-24T08:21:48;11.80;14.60
16479;DHT22;8350;52.316;10.530;2023-04-24T08:24:15;12.00;1.00
16479;DHT22;8350;52.316;10.530;2023-04-24T08:26:41;12.20;1.00
16479;DHT22;8350;52.316;10.530;2023-04-24T08:29:09;12.30;1.00
16479;DHT22;8350;52.316;10.530;2023-04-24T08:31:39;12.50;1.00
16479;DHT22;8350;52.316;10.530;2023-04-24T08:34:09;12.80;1.00
16479;DHT22;8350;52.316;10.530;2023-04-24T08:36:36;13.10;1.00
16479;DHT22;8350;52.316;10.530;2023-04-24T08:39:05;13.50;1.00
16479;DHT22;8350;52.316;10.530;2023-04-24T08:41:33;13.90;1.00
16479;DHT22;8350;52.316;10.530;2023-04-24T08:44:02;14.20;1.00
16479;DHT22;8350;52.316;10.530;2023-04-24T08:46:30;14.50;1.00
16479;DHT22;8350;52.316;10.530;2023-04-24T08:48:59;14.70;1.00
16479;DHT22;8350;52.316;10.530;2023-04-24T08:51:26;14.70;99.90
16479;DHT22;8350;52.316;10.530;2023-04-24T08:53:57;14.70;99.90
16479;DHT22;8350;52.316;10.530;2023-04-24T08:56:24;14.90;99.90
16479;DHT22;8350;52.316;10.530;2023-04-24T08:58:51;14.90;99.90
16479;DHT22;8350;52.316;10.530;2023-04-24T09:01:19;15.10;99.90
16479;DHT22;8350;52.316;10.530;2023-04-24T09:03:48;15.10;99.90
16479;DHT22;8350;52.316;10.530;2023-04-24T09:06:19;15.00;99.90
16479;DHT22;8350;52.316;10.530;2023-04-24T09:08:49;14.80;99.90
16479;DHT22;8350;52.316;10.530;2023-04-24T09:11:16;15.00;1.00
16479;DHT22;8350;52.316;10.530;2023-04-24T09:13:43;15.00;5.50
16479;DHT22;8350;52.316;10.530;2023-04-24T09:16:11;14.70;1.00
16479;DHT22;8350;52.316;10.530;2023-04-24T09:18:39;15.10;99.90
16479;DHT22;8350;52.316;10.530;2023-04-24T09:21:07;15.50;99.90
16479;DHT22;8350;52.316;10.530;2023-04-24T09:23:36;15.50;1.00
16479;DHT22;8350;52.316;10.530;2023-04-24T09:26:04;15.40;1.00
16479;DHT22;8350;52.316;10.530;2023-04-24T09:28:32;15.00;1.00
16479;DHT22;8350;52.316;10.530;2023-04-24T09:31:09;14.80;1.00
16479;DHT22;8350;52.316;10.530;2023-04-24T09:33:37;15.00;1.00
16479;DHT22;8350;52.316;10.530;2023-04-24T09:36:04;15.30;1.00
16479;DHT22;8350;52.316;10.530;2023-04-24T09:38:33;15.50;1.00
16479;DHT22;8350;52.316;10.530;2023-04-24T09:41:04;15.30;1.00
16479;DHT22;8350;52.316;10.530;2023-04-24T09:43:31;15.40;1.00
16479;DHT22;8350;52.316;10.530;2023-04-24T09:46:03;15.60;1.00
16479;DHT22;8350;52.316;10.530;2023-04-24T09:48:32;15.60;99.90
16479;DHT22;8350;52.316;10.530;2023-04-24T09:51:00;15.30;1.00
16479;DHT22;8350;52.316;10.530;2023-04-24T09:53:27;15.20;1.00
16479;DHT22;8350;52.316;10.530;2023-04-24T09:55:54;14.90;1.00
16479;DHT22;8350;52.316;10.530;2023-04-24T09:58:26;14.60;1.00
16479;DHT22;8350;52.316;10.530;2023-04-24T10:00:56;14.40;1.00
16479;DHT22;8350;52.316;10.530;2023-04-24T10:03:24;14.70;1.00
16479;DHT22;8350;52.316;10.530;2023-04-24T10:05:53;15.10;1.00
16479;DHT22;8350;52.316;10.530;2023-04-24T10:08:20;15.10;99.90
16479;DHT22;8350;52.316;10.530;2023-04-24T10:10:48;15.10;1.00
16479;DHT22;8350;52.316;10.530;2023-04-24T10:13:15;15.10;1.00
16479;DHT22;8350;52.316;10.530;2023-04-24T10:15:44;15.20;1.00
16479;DHT22;8350;52.316;10.530;2023-04-24T10:18:12;15.40;1.00
16479;DHT22;8350;52.316;10.530;2023-04-24T10:20:40;15.50;99.90
16479;DHT22;8350;52.316;10.530;2023-04-24T10:23:07;15.50;99.90
16479;DHT22;8350;52.316;10.530;2023-04-24T10:25:35;15.30;99.90
16479;DHT22;8350;52.316;10.530;2023-04-24T10:28:08;15.00;99.90
16479;DHT22;8350;52.316;10.530;2023-04-24T10:30:44;14.60;99.90
16479;DHT22;8350;52.316;10.530;2023-04-24T10:33:12;14.60;1.00
16479;DHT22;8350;52.316;10.530;2023-04-24T10:35:46;14.40;99.90
16479;DHT22;8350;52.316;10.530;2023-04-24T10:38:21;14.40;1.00
16479;DHT22;8350;52.316;10.530;2023-04-24T10:40:49;14.50;1.00
16479;DHT22;8350;52.316;10.530;2023-04-24T10:43:17;14.40;99.90
16479;DHT22;8350;52.316;10.530;2023-04-24T10:48:52;14.60;99.90
16479;DHT22;8350;52.316;10.530;2023-04-24T10:51:22;15.20;1.00
16479;DHT22;8350;52.316;10.530;2023-04-24T10:53:50;15.00;1.00
16479;DHT22;8350;52.316;10.530;2023-04-24T10:56:18;14.80;29.80
16479;DHT22;8350;52.316;10.530;2023-04-24T10:58:51;14.60;72.60
16479;DHT22;8350;52.316;10.530;2023-04-24T11:01:25;14.40;99.90
16479;DHT22;8350;52.316;10.530;2023-04-24T11:03:57;14.40;99.90
16479;DHT22;8350;52.316;10.530;2023-04-24T11:06:30;14.30;99.90
16479;DHT22;8350;52.316;10.530;2023-04-24T11:09:04;14.30;99.90
16479;DHT22;8350;52.316;10.530;2023-04-24T11:11:36;14.20;1.00
16479;DHT22;8350;52.316;10.530;2023-04-24T11:14:09;14.20;1.00
16479;DHT22;8350;52.316;10.530;2023-04-24T11:16:42;14.40;99.90
16479;DHT22;8350;52.316;10.530;2023-04-24T11:19:20;14.90;1.00
16479;DHT22;8350;52.316;10.530;2023-04-24T11:21:55;15.30;1.00
16479;DHT22;8350;52.316;10.530;2023-04-24T11:24:28;15.90;1.00
16479;DHT22;8350;52.316;10.530;2023-04-24T11:27:06;16.40;99.90
16479;DHT22;8350;52.316;10.530;2023-04-24T11:29:44;16.80;99.90
16479;DHT22;8350;52.316;10.530;2023-04-24T11:32:16;16.50;1.00
16479;DHT22;8350;52.316;10.530;2023-04-24T11:34:47;16.30;99.90
16479;DHT22;8350;52.316;10.530;2023-04-24T11:37:15;15.80;99.90
16479;DHT22;8350;52.316;10.530;2023-04-24T11:39:42;15.70;1.00
16479;DHT22;8350;52.316;10.530;2023-04-24T11:42:09;15.80;1.00
16479;DHT22;8350;52.316;10.530;2023-04-24T11:44:36;15.60;1.00
16479;DHT22;8350;52.316;10.530;2023-04-24T11:47:04;15.40;30.60
16479;DHT22;8350;52.316;10.530;2023-04-24T11:49:37;15.50;99.90
16479;DHT22;8350;52.316;10.530;2023-04-24T11:52:05;15.60;99.90
16479;DHT22;8350;52.316;10.530;2023-04-24T11:54:32;15.80;99.90
16479;DHT22;8350;52.316;10.530;2023-04-24T11:57:04;16.00;99.90
16479;DHT22;8350;52.316;10.530;2023-04-24T11:59:35;16.00;1.00
16479;DHT22;8350;52.316;10.530;2023-04-24T12:02:03;15.90;1.00
16479;DHT22;8350;52.316;10.530;2023-04-24T12:04:39;15.90;1.00
16479;DHT22;8350;52.316;10.530;2023-04-24T12:07:08;15.70;18.20
16479;DHT22;8350;52.316;10.530;2023-04-24T12:09:42;15.70;99.90
16479;DHT22;8350;52.316;10.530;2023-04-24T12:12:10;15.80;1.00
16479;DHT22;8350;52.316;10.530;2023-04-24T12:14:45;15.90;99.90
16479;DHT22;8350;52.316;10.530;2023-04-24T12:17:14;16.00;99.90
16479;DHT22;8350;52.316;10.530;2023-04-24T12:19:50;16.30;99.90
16479;DHT22;8350;52.316;10.530;2023-04-24T12:22:18;16.30;1.00
16479;DHT22;8350;52.316;10.530;2023-04-24T12:25:02;16.30;57.30
16479;DHT22;8350;52.316;10.530;2023-04-24T12:27:34;16.50;1.00
16479;DHT22;8350;52.316;10.530;2023-04-24T12:30:10;16.30;1.00
16479;DHT22;8350;52.316;10.530;2023-04-24T12:32:41;16.00;1.00
16479;DHT22;8350;52.316;10.530;2023-04-24T12:35:09;15.60;99.90
16479;DHT22;8350;52.316;10.530;2023-04-24T12:37:38;15.50;1.00
16479;DHT22;8350;52.316;10.530;2023-04-24T12:40:07;15.10;99.90
16479;DHT22;8350;52.316;10.530;2023-04-24T12:42:36;15.20;1.00
16479;DHT22;8350;52.316;10.530;2023-04-24T12:45:08;15.20;1.00
16479;DHT22;8350;52.316;10.530;2023-04-24T12:47:38;14.90;1.00
16479;DHT22;8350;52.316;10.530;2023-04-24T12:50:06;14.70;1.00
16479;DHT22;8350;52.316;10.530;2023-04-24T12:52:33;14.50;1.00
16479;DHT22;8350;52.316;10.530;2023-04-24T12:55:04;14.30;1.00
16479;DHT22;8350;52.316;10.530;2023-04-24T12:57:34;14.60;1.00
16479;DHT22;8350;52.316;10.530;2023-04-24T13:00:08;14.70;1.00
16479;DHT22;8350;52.316;10.530;2023-04-24T13:02:35;14.70;1.00
16479;DHT22;8350;52.316;10.530;2023-04-24T13:05:02;14.70;1.00
16479;DHT22;8350;52.316;10.530;2023-04-24T13:07:30;14.40;1.00
16479;DHT22;8350;52.316;10.530;2023-04-24T13:09:59;14.30;1.00
16479;DHT22;8350;52.316;10.530;2023-04-24T13:12:27;14.20;1.00
16479;DHT22;8350;52.316;10.530;2023-04-24T13:14:54;14.00;1.00
16479;DHT22;8350;52.316;10.530;2023-04-24T13:17:22;13.90;1.00
16479;DHT22;8350;52.316;10.530;2023-04-24T13:19:50;13.90;1.00
16479;DHT22;8350;52.316;10.530;2023-04-24T13:22:18;13.90;99.90
16479;DHT22;8350;52.316;10.530;2023-04-24T13:24:45;14.00;21.40
16479;DHT22;8350;52.316;10.530;2023-04-24T13:27:14;13.90;99.90
16479;DHT22;8350;52.316;10.530;2023-04-24T13:29:42;13.60;99.90
16479;DHT22;8350;52.316;10.530;2023-04-24T13:32:10;13.40;99.90
16479;DHT22;8350;52.316;10.530;2023-04-24T13:34:37;13.30;99.90
16479;DHT22;8350;52.316;10.530;2023-04-24T13:37:05;13.30;99.90
16479;DHT22;8350;52.316;10.530;2023-04-24T13:39:44;13.40;99.90
16479;DHT22;8350;52.316;10.530;2023-04-24T13:42:13;13.30;99.90
16479;DHT22;8350;52.316;10.530;2023-04-24T13:44:42;13.20;99.90
16479;DHT22;8350;52.316;10.530;2023-04-24T13:47:08;13.10;99.90
16479;DHT22;8350;52.316;10.530;2023-04-24T13:49:36;13.20;99.90
16479;DHT22;8350;52.316;10.530;2023-04-24T13:52:03;13.10;99.90
16479;DHT22;8350;52.316;10.530;2023-04-24T13:54:30;13.10;99.90
16479;DHT22;8350;52.316;10.530;2023-04-24T13:56:58;13.00;99.90
16479;DHT22;8350;52.316;10.530;2023-04-24T13:59:26;13.00;99.90
16479;DHT22;8350;52.316;10.530;2023-04-24T14:01:55;13.20;99.90
16479;DHT22;8350;52.316;10.530;2023-04-24T14:04:22;13.20;99.90
16479;DHT22;8350;52.316;10.530;2023-04-24T14:06:49;13.10;99.90
16479;DHT22;8350;52.316;10.530;2023-04-24T14:09:19;12.80;99.90
16479;DHT22;8350;52.316;10.530;2023-04-24T14:11:46;12.60;99.90
16479;DHT22;8350;52.316;10.530;2023-04-24T14:14:13;12.50;99.90
16479;DHT22;8350;52.316;10.530;2023-04-24T14:16:40;12.50;99.90
16479;DHT22;8350;52.316;10.530;2023-04-24T14:19:09;12.30;99.90
16479;DHT22;8350;52.316;10.530;2023-04-24T14:21:36;12.30;1.00
16479;DHT22;8350;52.316;10.530;2023-04-24T14:24:03;12.20;1.00
16479;DHT22;8350;52.316;10.530;2023-04-24T14:26:31;11.90;1.00
16479;DHT22;8350;52.316;10.530;2023-04-24T14:28:58;11.60;1.00
16479;DHT22;8350;52.316;10.530;2023-04-24T14:31:27;11.50;1.00
16479;DHT22;8350;52.316;10.530;2023-04-24T14:33:56;11.30;1.00
16479;DHT22;8350;52.316;10.530;2023-04-24T14:36:24;11.40;1.00
16479;DHT22;8350;52.316;10.530;2023-04-24T14:38:52;11.50;1.00
16479;DHT22;8350;52.316;10.530;2023-04-24T14:41:19;11.50;1.00
16479;DHT22;8350;52.316;10.530;2023-04-24T14:43:46;11.50;1.00
16479;DHT22;8350;52.316;10.530;2023-04-24T14:46:13;11.40;1.00
16479;DHT22;8350;52.316;10.530;2023-04-24T14:48:40;11.30;1.00
16479;DHT22;8350;52.316;10.530;2023-04-24T14:51:07;11.10;1.00
16479;DHT22;8350;52.316;10.530;2023-04-24T14:53:36;10.90;1.00
16479;DHT22;8350;52.316;10.530;2023-04-24T14:56:03;10.70;1.00
16479;DHT22;8350;52.316;10.530;2023-04-24T14:58:31;10.60;1.00
16479;DHT22;8350;52.316;10.530;2023-04-24T15:00:58;10.50;1.00
16479;DHT22;8350;52.316;10.530;2023-04-24T15:03:26;10.30;1.00
16479;DHT22;8350;52.316;10.530;2023-04-24T15:05:54;10.40;1.00
16479;DHT22;8350;52.316;10.530;2023-04-24T15:08:21;10.30;1.00
16479;DHT22;8350;52.316;10.530;2023-04-24T15:10:51;10.40;1.00
16479;DHT22;8350;52.316;10.530;2023-04-24T15:13:21;10.40;1.00
16479;DHT22;8350;52.316;10.530;2023-04-24T15:15:48;10.30;1.00
16479;DHT22;8350;52.316;10.530;2023-04-24T15:18:18;10.40;1.00
16479;DHT22;8350;52.316;10.530;2023-04-24T15:20:45;10.20;1.00
16479;DHT22;8350;52.316;10.530;2023-04-24T15:23:12;10.00;1.00
16479;DHT22;8350;52.316;10.530;2023-04-24T15:25:39;10.00;1.00
16479;DHT22;8350;52.316;10.530;2023-04-24T15:28:07;10.00;1.00
16479;DHT22;8350;52.316;10.530;2023-04-24T15:30:34;10.00;1.00
16479;DHT22;8350;52.316;10.530;2023-04-24T15:33:01;10.10;1.00
16479;DHT22;8350;52.316;10.530;2023-04-24T15:35:28;9.90;1.00
16479;DHT22;8350;52.316;10.530;2023-04-24T15:37:58;9.80;1.10
16479;DHT22;8350;52.316;10.530;2023-04-24T15:40:25;9.90;1.00
16479;DHT22;8350;52.316;10.530;2023-04-24T15:42:52;9.70;8.70
16479;DHT22;8350;52.316;10.530;2023-04-24T15:45:23;9.70;3.10
16479;DHT22;8350;52.316;10.530;2023-04-24T15:47:50;9.70;49.00
16479;DHT22;8350;52.316;10.530;2023-04-24T15:50:17;9.90;38.60